sensor_id;sensor_type;location;lat;lon;timestamp;temperature;humidity
30999;DHT22;20549;50.042;8.968;2023-03-24T00:00:10;16.50;79.90
30999;DHT22;20549;50.042;8.968;2023-03-24T00:02:37;16.40;80.30
30999;DHT22;20549;50.042;8.968;2023-03-24T00:05:03;16.30;80.50
30999;DHT22;20549;50.042;8.968;2023-03-24T00:07:30;16.30;80.80
30999;DHT22;20549;50.042;8.968;2023-03-24T00:09:56;16.20;81.20
30999;DHT22;20549;50.042;8.968;2023-03-24T00:12:23;16.20;81.70
30999;DHT22;20549;50.042;8.968;2023-03-24T00:14:49;16.10;82.00
30999;DHT22;20549;50.042;8.968;2023-03-24T00:17:16;16.00;82.50
30999;DHT22;20549;50.042;8.968;2023-03-24T00:19:43;16.00;82.90
30999;DHT22;20549;50.042;8.968;2023-03-24T00:22:09;15.90;83.40
30999;DHT22;20549;50.042;8.968;2023-03-24T00:24:36;15.90;83.80
30999;DHT22;20549;50.042;8.968;2023-03-24T00:27:02;15.90;84.40
30999;DHT22;20549;50.042;8.968;2023-03-24T00:29:29;15.80;84.90
30999;DHT22;20549;50.042;8.968;2023-03-24T00:31:55;15.80;85.50
30999;DHT22;20549;50.042;8.968;2023-03-24T00:34:22;15.80;85.90
30999;DHT22;20549;50.042;8.968;2023-03-24T00:36:49;15.70;86.60
30999;DHT22;20549;50.042;8.968;2023-03-24T00:39:16;15.70;86.70
30999;DHT22;20549;50.042;8.968;2023-03-24T00:41:42;15.70;87.20
30999;DHT22;20549;50.042;8.968;2023-03-24T00:44:08;15.60;87.50
30999;DHT22;20549;50.042;8.968;2023-03-24T00:46:35;15.60;87.90
30999;DHT22;20549;50.042;8.968;2023-03-24T00:49:05;15.60;88.40
30999;DHT22;20549;50.042;8.968;2023-03-24T00:51:37;15.50;88.80
30999;DHT22;20549;50.042;8.968;2023-03-24T00:54:00;15.50;89.30
30999;DHT22;20549;50.042;8.968;2023-03-24T00:56:27;15.50;89.50
30999;DHT22;20549;50.042;8.968;2023-03-24T00:58:54;15.50;90.00
30999;DHT22;20549;50.042;8.968;2023-03-24T01:01:20;15.40;90.00
30999;DHT22;20549;50.042;8.968;2023-03-24T01:03:47;15.40;90.30
30999;DHT22;20549;50.042;8.968;2023-03-24T01:06:13;15.40;90.40
30999;DHT22;20549;50.042;8.968;2023-03-24T01:08:40;15.30;90.50
30999;DHT22;20549;50.042;8.968;2023-03-24T01:11:06;15.30;90.60
30999;DHT22;20549;50.042;8.968;2023-03-24T01:13:33;15.30;90.80
30999;DHT22;20549;50.042;8.968;2023-03-24T01:16:00;15.30;90.90
30999;DHT22;20549;50.042;8.968;2023-03-24T01:18:26;15.20;91.10
30999;DHT22;20549;50.042;8.968;2023-03-24T01:20:53;15.20;91.30
30999;DHT22;20549;50.042;8.968;2023-03-24T01:23:21;15.20;91.50
30999;DHT22;20549;50.042;8.968;2023-03-24T01:25:46;15.10;91.60
30999;DHT22;20549;50.042;8.968;2023-03-24T01:28:17;15.10;91.80
30999;DHT22;20549;50.042;8.968;2023-03-24T01:30:42;15.10;91.80
30999;DHT22;20549;50.042;8.968;2023-03-24T01:33:09;15.10;91.70
30999;DHT22;20549;50.042;8.968;2023-03-24T01:35:35;15.00;91.90
30999;DHT22;20549;50.042;8.968;2023-03-24T01:38:08;15.00;92.10
30999;DHT22;20549;50.042;8.968;2023-03-24T01:40:32;15.00;92.20
30999;DHT22;20549;50.042;8.968;2023-03-24T01:42:58;15.00;92.40
30999;DHT22;20549;50.042;8.968;2023-03-24T01:46:05;15.00;92.50
30999;DHT22;20549;50.042;8.968;2023-03-24T01:53:24;14.90;92.90
30999;DHT22;20549;50.042;8.968;2023-03-24T01:55:50;14.90;93.10
30999;DHT22;20549;50.042;8.968;2023-03-24T01:58:17;14.80;93.30
30999;DHT22;20549;50.042;8.968;2023-03-24T02:00:44;14.80;93.50
30999;DHT22;20549;50.042;8.968;2023-03-24T02:03:15;14.80;93.70
30999;DHT22;20549;50.042;8.968;2023-03-24T02:05:39;14.80;93.80
30999;DHT22;20549;50.042;8.968;2023-03-24T02:08:13;14.80;94.00
30999;DHT22;20549;50.042;8.968;2023-03-24T02:10:38;14.80;94.00
30999;DHT22;20549;50.042;8.968;2023-03-24T02:13:05;14.80;94.10
30999;DHT22;20549;50.042;8.968;2023-03-24T02:15:32;14.80;94.40
30999;DHT22;20549;50.042;8.968;2023-03-24T02:23:52;14.70;94.60
30999;DHT22;20549;50.042;8.968;2023-03-24T02:26:27;14.70;94.40
30999;DHT22;20549;50.042;8.968;2023-03-24T02:29:06;14.70;94.60
30999;DHT22;20549;50.042;8.968;2023-03-24T02:37:10;14.70;95.20
30999;DHT22;20549;50.042;8.968;2023-03-24T02:48:05;14.60;95.40
30999;DHT22;20549;50.042;8.968;2023-03-24T02:53:08;14.50;95.70
30999;DHT22;20549;50.042;8.968;2023-03-24T02:55:40;14.50;95.80
30999;DHT22;20549;50.042;8.968;2023-03-24T02:58:04;14.40;96.10
30999;DHT22;20549;50.042;8.968;2023-03-24T03:00:45;14.40;96.10
30999;DHT22;20549;50.042;8.968;2023-03-24T03:03:16;14.40;95.80
30999;DHT22;20549;50.042;8.968;2023-03-24T03:06:14;14.40;96.20
30999;DHT22;20549;50.042;8.968;2023-03-24T03:08:40;14.40;96.40
30999;DHT22;20549;50.042;8.968;2023-03-24T03:11:06;14.30;96.20
30999;DHT22;20549;50.042;8.968;2023-03-24T03:13:36;14.30;96.50
30999;DHT22;20549;50.042;8.968;2023-03-24T03:16:03;14.30;96.80
30999;DHT22;20549;50.042;8.968;2023-03-24T03:18:32;14.30;97.00
30999;DHT22;20549;50.042;8.968;2023-03-24T03:21:00;14.30;97.10
30999;DHT22;20549;50.042;8.968;2023-03-24T03:23:29;14.30;97.30
30999;DHT22;20549;50.042;8.968;2023-03-24T03:25:56;14.30;97.40
30999;DHT22;20549;50.042;8.968;2023-03-24T03:28:21;14.30;97.50
30999;DHT22;20549;50.042;8.968;2023-03-24T03:30:54;14.30;97.40
30999;DHT22;20549;50.042;8.968;2023-03-24T03:33:18;14.30;97.70
30999;DHT22;20549;50.042;8.968;2023-03-24T03:35:47;14.30;97.70
30999;DHT22;20549;50.042;8.968;2023-03-24T03:38:41;14.30;97.80
30999;DHT22;20549;50.042;8.968;2023-03-24T03:43:11;14.30;97.80
30999;DHT22;20549;50.042;8.968;2023-03-24T03:45:38;14.30;97.80
30999;DHT22;20549;50.042;8.968;2023-03-24T03:48:05;14.30;97.80
30999;DHT22;20549;50.042;8.968;2023-03-24T03:50:31;14.30;97.80
30999;DHT22;20549;50.042;8.968;2023-03-24T03:52:58;14.30;97.70
30999;DHT22;20549;50.042;8.968;2023-03-24T03:55:24;14.30;97.80
30999;DHT22;20549;50.042;8.968;2023-03-24T03:57:51;14.40;97.90
30999;DHT22;20549;50.042;8.968;2023-03-24T04:00:18;14.40;97.90
30999;DHT22;20549;50.042;8.968;2023-03-24T04:05:25;14.40;97.90
30999;DHT22;20549;50.042;8.968;2023-03-24T04:08:06;14.50;97.90
30999;DHT22;20549;50.042;8.968;2023-03-24T04:15:54;14.50;97.60
30999;DHT22;20549;50.042;8.968;2023-03-24T04:18:45;14.50;97.60
30999;DHT22;20549;50.042;8.968;2023-03-24T04:26:47;14.70;97.90
30999;DHT22;20549;50.042;8.968;2023-03-24T04:29:24;14.70;97.90
30999;DHT22;20549;50.042;8.968;2023-03-24T04:32:02;14.80;97.60
30999;DHT22;20549;50.042;8.968;2023-03-24T04:34:27;14.90;97.80
30999;DHT22;20549;50.042;8.968;2023-03-24T04:36:56;15.00;97.80
30999;DHT22;20549;50.042;8.968;2023-03-24T04:39:21;15.00;98.00
30999;DHT22;20549;50.042;8.968;2023-03-24T04:41:47;15.10;97.80
30999;DHT22;20549;50.042;8.968;2023-03-24T04:44:13;15.20;97.70
30999;DHT22;20549;50.042;8.968;2023-03-24T04:46:40;15.30;97.70
30999;DHT22;20549;50.042;8.968;2023-03-24T04:49:07;15.40;97.60
30999;DHT22;20549;50.042;8.968;2023-03-24T04:51:33;15.50;97.60
30999;DHT22;20549;50.042;8.968;2023-03-24T04:54:00;15.60;97.40
30999;DHT22;20549;50.042;8.968;2023-03-24T04:58:55;15.70;97.00
30999;DHT22;20549;50.042;8.968;2023-03-24T05:01:22;15.80;96.90
30999;DHT22;20549;50.042;8.968;2023-03-24T05:03:49;15.80;96.90
30999;DHT22;20549;50.042;8.968;2023-03-24T05:06:15;15.80;97.00
30999;DHT22;20549;50.042;8.968;2023-03-24T05:08:42;15.80;97.20
30999;DHT22;20549;50.042;8.968;2023-03-24T05:11:08;15.70;97.60
30999;DHT22;20549;50.042;8.968;2023-03-24T05:13:35;15.70;97.70
30999;DHT22;20549;50.042;8.968;2023-03-24T05:16:02;15.70;97.80
30999;DHT22;20549;50.042;8.968;2023-03-24T05:18:28;15.70;98.10
30999;DHT22;20549;50.042;8.968;2023-03-24T05:20:55;15.60;98.20
30999;DHT22;20549;50.042;8.968;2023-03-24T05:23:21;15.60;98.20
30999;DHT22;20549;50.042;8.968;2023-03-24T05:25:48;15.60;98.30
30999;DHT22;20549;50.042;8.968;2023-03-24T05:28:14;15.50;98.60
30999;DHT22;20549;50.042;8.968;2023-03-24T05:30:41;15.50;98.60
30999;DHT22;20549;50.042;8.968;2023-03-24T05:33:08;15.50;99.00
30999;DHT22;20549;50.042;8.968;2023-03-24T05:35:34;15.40;99.70
30999;DHT22;20549;50.042;8.968;2023-03-24T05:38:01;15.40;99.40
30999;DHT22;20549;50.042;8.968;2023-03-24T05:40:27;15.40;99.60
30999;DHT22;20549;50.042;8.968;2023-03-24T05:42:54;15.40;99.90
30999;DHT22;20549;50.042;8.968;2023-03-24T05:45:21;15.40;99.80
30999;DHT22;20549;50.042;8.968;2023-03-24T05:47:47;15.40;99.90
30999;DHT22;20549;50.042;8.968;2023-03-24T05:50:14;15.40;99.90
30999;DHT22;20549;50.042;8.968;2023-03-24T05:52:40;15.40;99.90
30999;DHT22;20549;50.042;8.968;2023-03-24T05:55:07;15.40;99.90
30999;DHT22;20549;50.042;8.968;2023-03-24T05:57:34;15.40;99.90
30999;DHT22;20549;50.042;8.968;2023-03-24T06:00:00;15.40;99.90
30999;DHT22;20549;50.042;8.968;2023-03-24T06:02:27;15.40;99.90
30999;DHT22;20549;50.042;8.968;2023-03-24T06:04:53;15.40;99.90
30999;DHT22;20549;50.042;8.968;2023-03-24T06:07:20;15.40;99.90
30999;DHT22;20549;50.042;8.968;2023-03-24T06:09:46;15.40;99.90
30999;DHT22;20549;50.042;8.968;2023-03-24T06:12:13;15.40;99.90
30999;DHT22;20549;50.042;8.968;2023-03-24T06:14:40;15.40;99.90
30999;DHT22;20549;50.042;8.968;2023-03-24T06:17:06;15.40;99.90
30999;DHT22;20549;50.042;8.968;2023-03-24T06:19:33;15.40;99.90
30999;DHT22;20549;50.042;8.968;2023-03-24T06:21:59;15.50;99.90
30999;DHT22;20549;50.042;8.968;2023-03-24T06:24:26;15.50;99.90
30999;DHT22;20549;50.042;8.968;2023-03-24T06:26:53;15.50;99.90
30999;DHT22;20549;50.042;8.968;2023-03-24T06:29:19;15.50;99.90
30999;DHT22;20549;50.042;8.968;2023-03-24T06:31:47;15.50;99.90
30999;DHT22;20549;50.042;8.968;2023-03-24T06:34:12;15.60;99.90
30999;DHT22;20549;50.042;8.968;2023-03-24T06:36:39;15.60;99.90
30999;DHT22;20549;50.042;8.968;2023-03-24T06:39:06;15.60;99.90
30999;DHT22;20549;50.042;8.968;2023-03-24T06:41:32;15.70;99.90
30999;DHT22;20549;50.042;8.968;2023-03-24T06:43:59;15.70;99.90
30999;DHT22;20549;50.042;8.968;2023-03-24T06:46:25;15.80;99.90
30999;DHT22;20549;50.042;8.968;2023-03-24T06:48:52;15.80;99.90
30999;DHT22;20549;50.042;8.968;2023-03-24T06:51:18;15.90;99.90
30999;DHT22;20549;50.042;8.968;2023-03-24T06:53:45;15.90;99.90
30999;DHT22;20549;50.042;8.968;2023-03-24T06:56:12;16.00;99.90
30999;DHT22;20549;50.042;8.968;2023-03-24T06:58:41;16.10;99.90
30999;DHT22;20549;50.042;8.968;2023-03-24T07:01:08;16.10;99.90
30999;DHT22;20549;50.042;8.968;2023-03-24T07:03:34;16.10;99.80
30999;DHT22;20549;50.042;8.968;2023-03-24T07:06:01;16.20;99.70
30999;DHT22;20549;50.042;8.968;2023-03-24T07:08:27;16.20;99.50
30999;DHT22;20549;50.042;8.968;2023-03-24T07:10:54;16.20;99.60
30999;DHT22;20549;50.042;8.968;2023-03-24T07:13:20;16.30;99.50
30999;DHT22;20549;50.042;8.968;2023-03-24T07:15:47;16.30;99.30
30999;DHT22;20549;50.042;8.968;2023-03-24T07:18:14;16.40;99.20
30999;DHT22;20549;50.042;8.968;2023-03-24T07:20:40;16.40;98.90
30999;DHT22;20549;50.042;8.968;2023-03-24T07:23:07;16.40;98.80
30999;DHT22;20549;50.042;8.968;2023-03-24T07:25:33;16.50;98.70
30999;DHT22;20549;50.042;8.968;2023-03-24T07:28:00;16.50;98.80
30999;DHT22;20549;50.042;8.968;2023-03-24T07:30:27;16.50;98.80
30999;DHT22;20549;50.042;8.968;2023-03-24T07:32:54;16.60;99.00
30999;DHT22;20549;50.042;8.968;2023-03-24T07:35:20;16.70;99.10
30999;DHT22;20549;50.042;8.968;2023-03-24T07:37:46;16.70;99.00
30999;DHT22;20549;50.042;8.968;2023-03-24T07:40:13;16.80;98.80
30999;DHT22;20549;50.042;8.968;2023-03-24T07:42:40;16.90;98.50
30999;DHT22;20549;50.042;8.968;2023-03-24T07:45:07;17.00;98.10
30999;DHT22;20549;50.042;8.968;2023-03-24T07:47:33;17.10;97.80
30999;DHT22;20549;50.042;8.968;2023-03-24T07:49:59;17.10;97.40
30999;DHT22;20549;50.042;8.968;2023-03-24T07:52:26;17.10;97.10
30999;DHT22;20549;50.042;8.968;2023-03-24T07:54:53;17.10;96.80
30999;DHT22;20549;50.042;8.968;2023-03-24T07:57:19;17.10;96.70
30999;DHT22;20549;50.042;8.968;2023-03-24T07:59:46;17.10;96.40
30999;DHT22;20549;50.042;8.968;2023-03-24T08:02:16;17.10;96.50
30999;DHT22;20549;50.042;8.968;2023-03-24T08:04:42;17.00;96.30
30999;DHT22;20549;50.042;8.968;2023-03-24T08:07:09;17.00;96.30
30999;DHT22;20549;50.042;8.968;2023-03-24T08:09:35;17.00;96.30
30999;DHT22;20549;50.042;8.968;2023-03-24T08:12:02;16.90;96.50
30999;DHT22;20549;50.042;8.968;2023-03-24T08:14:28;16.90;96.60
30999;DHT22;20549;50.042;8.968;2023-03-24T08:16:55;16.90;96.70
30999;DHT22;20549;50.042;8.968;2023-03-24T08:19:21;16.90;96.80
30999;DHT22;20549;50.042;8.968;2023-03-24T08:21:48;16.80;96.90
30999;DHT22;20549;50.042;8.968;2023-03-24T08:24:15;16.80;97.20
30999;DHT22;20549;50.042;8.968;2023-03-24T08:26:41;16.80;97.50
30999;DHT22;20549;50.042;8.968;2023-03-24T08:29:08;16.90;97.80
30999;DHT22;20549;50.042;8.968;2023-03-24T08:31:35;17.00;98.20
30999;DHT22;20549;50.042;8.968;2023-03-24T08:34:01;17.10;98.70
30999;DHT22;20549;50.042;8.968;2023-03-24T08:36:28;17.20;98.60
30999;DHT22;20549;50.042;8.968;2023-03-24T08:38:54;17.30;98.30
30999;DHT22;20549;50.042;8.968;2023-03-24T08:41:21;17.50;97.90
30999;DHT22;20549;50.042;8.968;2023-03-24T08:43:47;17.60;97.50
30999;DHT22;20549;50.042;8.968;2023-03-24T08:46:14;17.70;97.00
30999;DHT22;20549;50.042;8.968;2023-03-24T08:48:41;17.90;96.40
30999;DHT22;20549;50.042;8.968;2023-03-24T08:51:11;17.90;95.90
30999;DHT22;20549;50.042;8.968;2023-03-24T08:53:36;17.90;95.30
30999;DHT22;20549;50.042;8.968;2023-03-24T08:56:03;18.00;95.00
30999;DHT22;20549;50.042;8.968;2023-03-24T08:58:30;18.00;95.00
30999;DHT22;20549;50.042;8.968;2023-03-24T09:00:56;18.10;95.10
30999;DHT22;20549;50.042;8.968;2023-03-24T09:03:23;18.10;94.70
30999;DHT22;20549;50.042;8.968;2023-03-24T09:05:49;18.20;94.70
30999;DHT22;20549;50.042;8.968;2023-03-24T09:08:17;18.20;94.50
30999;DHT22;20549;50.042;8.968;2023-03-24T09:10:43;18.20;94.00
30999;DHT22;20549;50.042;8.968;2023-03-24T09:13:09;18.30;93.70
30999;DHT22;20549;50.042;8.968;2023-03-24T09:15:36;18.30;93.30
30999;DHT22;20549;50.042;8.968;2023-03-24T09:18:02;18.30;93.70
30999;DHT22;20549;50.042;8.968;2023-03-24T09:20:29;18.30;94.10
30999;DHT22;20549;50.042;8.968;2023-03-24T09:22:56;18.30;94.20
30999;DHT22;20549;50.042;8.968;2023-03-24T09:25:22;18.30;94.30
30999;DHT22;20549;50.042;8.968;2023-03-24T09:27:49;18.30;94.00
30999;DHT22;20549;50.042;8.968;2023-03-24T09:30:16;18.30;93.90
30999;DHT22;20549;50.042;8.968;2023-03-24T09:32:42;18.30;93.60
30999;DHT22;20549;50.042;8.968;2023-03-24T09:35:08;18.30;93.60
30999;DHT22;20549;50.042;8.968;2023-03-24T09:37:35;18.30;93.70
30999;DHT22;20549;50.042;8.968;2023-03-24T09:40:02;18.30;93.80
30999;DHT22;20549;50.042;8.968;2023-03-24T09:42:29;18.20;93.60
30999;DHT22;20549;50.042;8.968;2023-03-24T09:44:58;18.10;93.60
30999;DHT22;20549;50.042;8.968;2023-03-24T09:47:32;18.00;93.60
30999;DHT22;20549;50.042;8.968;2023-03-24T09:49:59;18.00;93.60
30999;DHT22;20549;50.042;8.968;2023-03-24T09:52:26;17.90;93.70
30999;DHT22;20549;50.042;8.968;2023-03-24T09:54:52;17.70;93.70
30999;DHT22;20549;50.042;8.968;2023-03-24T09:57:39;17.60;93.40
30999;DHT22;20549;50.042;8.968;2023-03-24T09:59:43;17.60;92.90
30999;DHT22;20549;50.042;8.968;2023-03-24T10:02:15;17.40;92.30
30999;DHT22;20549;50.042;8.968;2023-03-24T10:04:39;17.20;92.10
30999;DHT22;20549;50.042;8.968;2023-03-24T10:07:14;17.10;92.30
30999;DHT22;20549;50.042;8.968;2023-03-24T10:09:35;16.80;92.30
30999;DHT22;20549;50.042;8.968;2023-03-24T10:12:06;16.70;92.50
30999;DHT22;20549;50.042;8.968;2023-03-24T10:19:42;16.00;93.70
30999;DHT22;20549;50.042;8.968;2023-03-24T10:22:21;15.90;94.60
30999;DHT22;20549;50.042;8.968;2023-03-24T10:24:58;15.70;95.30
30999;DHT22;20549;50.042;8.968;2023-03-24T10:27:27;15.60;96.10
30999;DHT22;20549;50.042;8.968;2023-03-24T10:29:53;15.50;97.40
30999;DHT22;20549;50.042;8.968;2023-03-24T10:32:19;15.40;98.20
30999;DHT22;20549;50.042;8.968;2023-03-24T10:34:46;15.40;98.90
30999;DHT22;20549;50.042;8.968;2023-03-24T10:37:11;15.40;99.30
30999;DHT22;20549;50.042;8.968;2023-03-24T10:39:38;15.30;99.20
30999;DHT22;20549;50.042;8.968;2023-03-24T10:42:04;15.30;99.30
30999;DHT22;20549;50.042;8.968;2023-03-24T10:44:31;15.30;99.30
30999;DHT22;20549;50.042;8.968;2023-03-24T10:46:58;15.30;99.30
30999;DHT22;20549;50.042;8.968;2023-03-24T10:49:24;15.30;99.50
30999;DHT22;20549;50.042;8.968;2023-03-24T10:51:52;15.30;99.90
30999;DHT22;20549;50.042;8.968;2023-03-24T10:54:18;15.30;99.90
30999;DHT22;20549;50.042;8.968;2023-03-24T10:56:45;15.30;99.90
30999;DHT22;20549;50.042;8.968;2023-03-24T10:59:27;15.40;99.90
30999;DHT22;20549;50.042;8.968;2023-03-24T11:04:39;15.50;99.90
30999;DHT22;20549;50.042;8.968;2023-03-24T11:07:05;15.60;99.90
30999;DHT22;20549;50.042;8.968;2023-03-24T11:10:01;15.70;99.90
30999;DHT22;20549;50.042;8.968;2023-03-24T11:12:23;15.80;99.90
30999;DHT22;20549;50.042;8.968;2023-03-24T11:14:48;16.00;99.90
30999;DHT22;20549;50.042;8.968;2023-03-24T11:17:15;16.20;99.90
30999;DHT22;20549;50.042;8.968;2023-03-24T11:19:54;16.30;99.90
30999;DHT22;20549;50.042;8.968;2023-03-24T11:22:17;16.50;99.90
30999;DHT22;20549;50.042;8.968;2023-03-24T11:24:44;16.60;99.90
30999;DHT22;20549;50.042;8.968;2023-03-24T11:27:12;16.70;99.90
30999;DHT22;20549;50.042;8.968;2023-03-24T11:29:37;16.80;99.90
30999;DHT22;20549;50.042;8.968;2023-03-24T11:32:09;16.80;99.90
30999;DHT22;20549;50.042;8.968;2023-03-24T11:34:36;16.90;99.90
30999;DHT22;20549;50.042;8.968;2023-03-24T11:37:12;17.00;99.90
30999;DHT22;20549;50.042;8.968;2023-03-24T11:39:37;17.00;99.90
30999;DHT22;20549;50.042;8.968;2023-03-24T11:44:52;17.10;99.80
30999;DHT22;20549;50.042;8.968;2023-03-24T11:47:30;17.10;99.50
30999;DHT22;20549;50.042;8.968;2023-03-24T11:55:26;17.20;99.90
30999;DHT22;20549;50.042;8.968;2023-03-24T12:00:38;17.50;99.90
30999;DHT22;20549;50.042;8.968;2023-03-24T12:05:53;17.70;99.90
30999;DHT22;20549;50.042;8.968;2023-03-24T12:11:06;17.90;98.90
30999;DHT22;20549;50.042;8.968;2023-03-24T12:16:23;18.10;98.00
30999;DHT22;20549;50.042;8.968;2023-03-24T12:26:38;18.30;95.70
30999;DHT22;20549;50.042;8.968;2023-03-24T12:29:32;18.30;95.40
30999;DHT22;20549;50.042;8.968;2023-03-24T12:42:39;18.40;93.30
30999;DHT22;20549;50.042;8.968;2023-03-24T12:45:04;18.40;92.90
30999;DHT22;20549;50.042;8.968;2023-03-24T12:55:21;18.50;92.00
30999;DHT22;20549;50.042;8.968;2023-03-24T12:57:46;18.60;92.50
30999;DHT22;20549;50.042;8.968;2023-03-24T13:00:14;18.70;92.80
30999;DHT22;20549;50.042;8.968;2023-03-24T13:02:41;18.80;92.30
30999;DHT22;20549;50.042;8.968;2023-03-24T13:05:06;18.90;91.80
30999;DHT22;20549;50.042;8.968;2023-03-24T13:07:33;19.00;91.00
30999;DHT22;20549;50.042;8.968;2023-03-24T13:10:14;19.10;90.10
30999;DHT22;20549;50.042;8.968;2023-03-24T13:16:26;19.20;83.40
30999;DHT22;20549;50.042;8.968;2023-03-24T13:18:34;19.20;84.30
30999;DHT22;20549;50.042;8.968;2023-03-24T13:21:08;19.30;84.40
30999;DHT22;20549;50.042;8.968;2023-03-24T13:23:49;19.30;85.40
30999;DHT22;20549;50.042;8.968;2023-03-24T13:26:23;19.40;85.20
30999;DHT22;20549;50.042;8.968;2023-03-24T13:31:12;19.50;81.40
30999;DHT22;20549;50.042;8.968;2023-03-24T13:33:39;19.50;79.90
30999;DHT22;20549;50.042;8.968;2023-03-24T13:36:33;19.50;79.90
30999;DHT22;20549;50.042;8.968;2023-03-24T13:38:58;19.60;79.70
30999;DHT22;20549;50.042;8.968;2023-03-24T13:41:24;19.60;78.80
30999;DHT22;20549;50.042;8.968;2023-03-24T13:43:51;19.60;78.30
30999;DHT22;20549;50.042;8.968;2023-03-24T13:46:17;19.70;78.40
30999;DHT22;20549;50.042;8.968;2023-03-24T13:48:44;19.70;78.90
30999;DHT22;20549;50.042;8.968;2023-03-24T13:51:16;19.80;77.90
30999;DHT22;20549;50.042;8.968;2023-03-24T13:56:25;19.90;76.90
30999;DHT22;20549;50.042;8.968;2023-03-24T14:01:42;20.10;74.70
30999;DHT22;20549;50.042;8.968;2023-03-24T14:04:38;20.10;74.80
30999;DHT22;20549;50.042;8.968;2023-03-24T14:06:56;20.20;73.90
30999;DHT22;20549;50.042;8.968;2023-03-24T14:09:23;20.20;72.50
30999;DHT22;20549;50.042;8.968;2023-03-24T14:12:06;20.20;71.70
30999;DHT22;20549;50.042;8.968;2023-03-24T14:14:25;20.20;71.30
30999;DHT22;20549;50.042;8.968;2023-03-24T14:19:36;20.10;69.70
30999;DHT22;20549;50.042;8.968;2023-03-24T14:22:14;20.00;69.70
30999;DHT22;20549;50.042;8.968;2023-03-24T14:24:41;20.00;69.60
30999;DHT22;20549;50.042;8.968;2023-03-24T14:30:15;19.90;69.00
30999;DHT22;20549;50.042;8.968;2023-03-24T14:32:43;19.80;69.10
30999;DHT22;20549;50.042;8.968;2023-03-24T14:35:35;19.80;68.90
30999;DHT22;20549;50.042;8.968;2023-03-24T14:40:42;19.70;68.80
30999;DHT22;20549;50.042;8.968;2023-03-24T14:43:50;19.70;69.10
30999;DHT22;20549;50.042;8.968;2023-03-24T14:48:36;19.70;69.20
30999;DHT22;20549;50.042;8.968;2023-03-24T14:50:58;19.70;68.60
30999;DHT22;20549;50.042;8.968;2023-03-24T14:53:24;19.70;68.20
30999;DHT22;20549;50.042;8.968;2023-03-24T14:55:50;19.80;64.40
30999;DHT22;20549;50.042;8.968;2023-03-24T14:58:24;19.90;65.80
30999;DHT22;20549;50.042;8.968;2023-03-24T15:00:50;19.90;66.40
30999;DHT22;20549;50.042;8.968;2023-03-24T15:06:17;20.00;64.40
30999;DHT22;20549;50.042;8.968;2023-03-24T15:08:50;20.00;65.70
30999;DHT22;20549;50.042;8.968;2023-03-24T15:11:16;20.00;65.20
30999;DHT22;20549;50.042;8.968;2023-03-24T15:13:51;20.00;65.70
30999;DHT22;20549;50.042;8.968;2023-03-24T15:16:24;20.00;65.70
30999;DHT22;20549;50.042;8.968;2023-03-24T15:21:33;20.00;66.00
30999;DHT22;20549;50.042;8.968;2023-03-24T15:23:58;20.00;65.50
30999;DHT22;20549;50.042;8.968;2023-03-24T15:26:26;20.00;65.30
30999;DHT22;20549;50.042;8.968;2023-03-24T15:28:59;20.00;65.20
30999;DHT22;20549;50.042;8.968;2023-03-24T15:31:24;20.00;65.30
30999;DHT22;20549;50.042;8.968;2023-03-24T15:33:51;20.00;65.20
30999;DHT22;20549;50.042;8.968;2023-03-24T15:36:21;20.00;65.10
30999;DHT22;20549;50.042;8.968;2023-03-24T15:38:48;20.00;63.80
30999;DHT22;20549;50.042;8.968;2023-03-24T15:41:14;20.00;64.40
30999;DHT22;20549;50.042;8.968;2023-03-24T15:43:43;20.00;63.50
30999;DHT22;20549;50.042;8.968;2023-03-24T15:46:28;20.00;63.90
30999;DHT22;20549;50.042;8.968;2023-03-24T15:48:54;20.00;62.60
30999;DHT22;20549;50.042;8.968;2023-03-24T15:51:44;19.90;63.50
30999;DHT22;20549;50.042;8.968;2023-03-24T15:53:54;19.90;62.10
30999;DHT22;20549;50.042;8.968;2023-03-24T15:56:26;19.90;63.20
30999;DHT22;20549;50.042;8.968;2023-03-24T15:59:06;19.90;63.20
30999;DHT22;20549;50.042;8.968;2023-03-24T16:01:27;19.80;62.10
30999;DHT22;20549;50.042;8.968;2023-03-24T16:03:49;19.80;62.30
30999;DHT22;20549;50.042;8.968;2023-03-24T16:06:22;19.80;61.70
30999;DHT22;20549;50.042;8.968;2023-03-24T16:08:43;19.70;62.40
30999;DHT22;20549;50.042;8.968;2023-03-24T16:11:11;19.60;62.50
30999;DHT22;20549;50.042;8.968;2023-03-24T16:13:36;19.50;62.20
30999;DHT22;20549;50.042;8.968;2023-03-24T16:18:42;19.30;62.20
30999;DHT22;20549;50.042;8.968;2023-03-24T16:21:14;19.20;62.60
30999;DHT22;20549;50.042;8.968;2023-03-24T16:23:40;19.10;62.60
30999;DHT22;20549;50.042;8.968;2023-03-24T16:26:22;19.00;62.70
30999;DHT22;20549;50.042;8.968;2023-03-24T16:28:48;18.90;62.70
30999;DHT22;20549;50.042;8.968;2023-03-24T16:31:25;18.80;62.80
30999;DHT22;20549;50.042;8.968;2023-03-24T16:33:50;18.70;62.30
30999;DHT22;20549;50.042;8.968;2023-03-24T16:36:17;18.60;62.90
30999;DHT22;20549;50.042;8.968;2023-03-24T16:38:44;18.50;63.00
30999;DHT22;20549;50.042;8.968;2023-03-24T16:41:10;18.50;63.20
30999;DHT22;20549;50.042;8.968;2023-03-24T16:43:36;18.40;63.30
30999;DHT22;20549;50.042;8.968;2023-03-24T16:46:03;18.40;63.40
30999;DHT22;20549;50.042;8.968;2023-03-24T16:48:30;18.30;63.20
30999;DHT22;20549;50.042;8.968;2023-03-24T16:50:56;18.30;63.40
30999;DHT22;20549;50.042;8.968;2023-03-24T16:53:23;18.20;63.20
30999;DHT22;20549;50.042;8.968;2023-03-24T16:55:49;18.20;63.20
30999;DHT22;20549;50.042;8.968;2023-03-24T16:58:16;18.10;63.10
30999;DHT22;20549;50.042;8.968;2023-03-24T17:00:43;18.10;63.40
30999;DHT22;20549;50.042;8.968;2023-03-24T17:03:09;18.00;62.80
30999;DHT22;20549;50.042;8.968;2023-03-24T17:05:40;17.90;63.10
30999;DHT22;20549;50.042;8.968;2023-03-24T17:08:05;17.90;63.00
30999;DHT22;20549;50.042;8.968;2023-03-24T17:10:32;17.80;62.90
30999;DHT22;20549;50.042;8.968;2023-03-24T17:12:58;17.70;62.80
30999;DHT22;20549;50.042;8.968;2023-03-24T17:15:26;17.70;62.20
30999;DHT22;20549;50.042;8.968;2023-03-24T17:17:52;17.60;62.40
30999;DHT22;20549;50.042;8.968;2023-03-24T17:20:19;17.50;62.50
30999;DHT22;20549;50.042;8.968;2023-03-24T17:22:45;17.50;62.40
30999;DHT22;20549;50.042;8.968;2023-03-24T17:25:12;17.40;62.30
30999;DHT22;20549;50.042;8.968;2023-03-24T17:27:38;17.30;62.10
30999;DHT22;20549;50.042;8.968;2023-03-24T17:30:05;17.20;62.40
30999;DHT22;20549;50.042;8.968;2023-03-24T17:32:32;17.20;62.40
30999;DHT22;20549;50.042;8.968;2023-03-24T17:34:58;17.10;62.10
30999;DHT22;20549;50.042;8.968;2023-03-24T17:37:25;17.00;62.00
30999;DHT22;20549;50.042;8.968;2023-03-24T17:39:51;17.00;62.00
30999;DHT22;20549;50.042;8.968;2023-03-24T17:42:18;16.90;62.10
30999;DHT22;20549;50.042;8.968;2023-03-24T17:44:44;16.80;62.00